Time;durP1;ratioP1;P1;durP2;ratioP2;P2;SDS_P1;SDS_P2;PMS_P1;PMS_P2;Temp;Humidity;BMP_temperature;BMP_pressure;BME280_temperature;BME280_humidity;BME280_pressure;Samples;Min_cycle;Max_cycle;Signal;HPM_P1;HPM_P2
2022/03/11 00:01:48;;;;;;;24.92;18.42;;;;;;;5.20;40.45;95695.16;4953681;28;20396;-68
2022/03/11 00:04:14;;;;;;;28.95;18.65;;;;;;;5.47;40.35;95754.91;4936424;29;20035;-68
2022/03/11 00:06:39;;;;;;;29.50;18.33;;;;;;;5.51;40.28;95758.63;4952161;29;20032;-68
2022/03/11 00:09:05;;;;;;;26.25;17.95;;;;;;;4.70;41.01;95667.44;4953446;29;20038;-68
2022/03/11 00:11:30;;;;;;;26.02;17.70;;;;;;;5.35;40.51;95752.47;4953792;29;20037;-69
2022/03/11 00:13:56;;;;;;;24.52;16.88;;;;;;;4.31;40.36;95606.34;4953664;28;20034;-69
2022/03/11 00:16:22;;;;;;;29.38;17.83;;;;;;;5.13;40.37;95730.75;4936478;29;20070;-70
2022/03/11 00:18:48;;;;;;;27.83;16.65;;;;;;;5.26;40.31;95748.72;4936441;29;20062;-70
2022/03/11 00:21:14;;;;;;;24.35;16.70;;;;;;;4.98;40.34;95718.25;4953512;29;20117;-69
2022/03/11 00:23:42;;;;;;;23.30;16.55;;;;;;;5.11;40.50;95746.00;4951527;28;20453;-68
2022/03/11 00:26:07;;;;;;;28.23;17.58;;;;;;;4.69;40.43;95683.50;4953660;28;20035;-68
2022/03/11 00:28:33;;;;;;;21.90;16.40;;;;;;;4.99;40.27;95742.78;4953439;29;20554;-68
2022/03/11 00:30:58;;;;;;;23.10;16.48;;;;;;;4.87;40.14;95719.22;4953429;28;20134;-70
2022/03/11 00:33:24;;;;;;;24.80;16.30;;;;;;;3.71;40.43;95602.16;4953373;28;20031;-68
2022/03/11 00:35:49;;;;;;;23.08;15.20;;;;;;;4.55;39.90;95672.59;4935987;29;20046;-68
2022/03/11 00:38:15;;;;;;;20.02;14.95;;;;;;;4.77;39.82;95727.06;4938462;29;20489;-69
2022/03/11 00:40:40;;;;;;;27.25;15.50;;;;;;;4.43;39.89;95683.31;4938201;29;20035;-69
2022/03/11 00:43:06;;;;;;;22.05;14.30;;;;;;;4.72;39.50;95732.31;4921318;29;20028;-68
2022/03/11 00:45:31;;;;;;;20.98;14.20;;;;;;;4.39;39.13;95700.66;4938358;29;20031;-68
2022/03/11 00:47:57;;;;;;;17.95;13.57;;;;;;;4.34;38.66;95691.94;4938129;29;20038;-68
2022/03/11 00:50:23;;;;;;;20.95;13.57;;;;;;;4.75;38.14;95700.94;4923572;29;20102;-68
2022/03/11 00:52:48;;;;;;;18.80;12.90;;;;;;;4.35;38.35;95664.53;4957254;28;20629;-68
2022/03/11 00:55:14;;;;;;;16.80;12.05;;;;;;;4.49;38.17;95688.63;4957330;29;20031;-68
2022/03/11 00:57:39;;;;;;;16.60;12.27;;;;;;;3.99;38.09;95652.91;4939911;29;20349;-68
2022/03/11 01:00:06;;;;;;;17.27;11.52;;;;;;;4.40;37.47;95712.00;4957043;29;20039;-68
2022/03/11 01:02:36;;;;;;;15.98;11.38;;;;;;;4.54;38.07;95715.81;4955418;28;20031;-67
2022/03/11 01:05:06;;;;;;;13.65;10.43;;;;;;;4.14;37.79;95690.69;4957165;29;20540;-68
2022/03/11 01:07:33;;;;;;;17.05;11.38;;;;;;;4.12;37.38;95674.38;4937946;29;20396;-69
2022/03/11 01:09:58;;;;;;;17.15;10.95;;;;;;;4.15;37.15;95702.84;4957061;29;20085;-68
2022/03/11 01:12:24;;;;;;;14.55;10.95;;;;;;;4.13;36.91;95628.56;4939495;29;20118;-68
2022/03/11 01:14:49;;;;;;;15.52;10.63;;;;;;;4.00;36.61;95657.94;4957055;29;20556;-69
2022/03/11 01:17:15;;;;;;;20.95;10.52;;;;;;;3.05;36.79;95573.31;4955470;28;20034;-68
2022/03/11 01:19:40;;;;;;;20.40;10.70;;;;;;;3.61;36.18;95605.47;4955419;29;20023;-68
2022/03/11 01:22:06;;;;;;;16.30;9.85;;;;;;;4.04;36.54;95701.13;4954932;28;20030;-68
2022/03/11 01:24:32;;;;;;;11.90;9.65;;;;;;;3.92;36.33;95685.50;4956655;29;20673;-69
2022/03/11 01:26:58;;;;;;;14.27;8.65;;;;;;;3.83;36.91;95694.88;4956637;28;20032;-68
2022/03/11 01:29:23;;;;;;;11.05;8.73;;;;;;;4.13;36.32;95715.44;4939256;29;20468;-70
2022/03/11 01:31:50;;;;;;;10.23;8.23;;;;;;;3.34;36.76;95691.44;4956765;29;20043;-69
2022/03/11 01:34:16;;;;;;;11.65;8.68;;;;;;;3.19;36.46;95610.53;4956429;28;20042;-68
2022/03/11 01:36:41;;;;;;;11.65;8.25;;;;;;;3.46;36.31;95643.97;4954652;29;20468;-69
2022/03/11 01:39:07;;;;;;;13.00;8.02;;;;;;;3.52;36.37;95675.34;4954849;29;20027;-69
2022/03/11 01:41:32;;;;;;;10.48;7.88;;;;;;;2.24;36.43;95515.31;4956314;28;20032;-69
2022/03/11 01:44:00;;;;;;;12.75;7.90;;;;;;;3.17;37.11;95688.03;4955067;28;20114;-69
2022/03/11 01:46:25;;;;;;;10.43;7.30;;;;;;;3.51;36.52;95665.06;4955070;29;20118;-70
2022/03/11 01:48:51;;;;;;;14.63;8.55;;;;;;;3.54;35.74;95639.06;4938711;28;20436;-69
2022/03/11 01:51:17;;;;;;;10.90;8.45;;;;;;;3.22;36.09;95636.31;4955896;28;20035;-69
2022/03/11 01:53:44;;;;;;;10.35;8.20;;;;;;;3.55;35.98;95640.66;4956201;28;20042;-69
2022/03/11 01:56:10;;;;;;;10.95;7.72;;;;;;;3.77;35.35;95650.34;4938965;29;20035;-70
2022/03/11 01:58:36;;;;;;;11.23;8.05;;;;;;;3.88;35.75;95692.28;4955860;28;20146;-69
2022/03/11 02:01:03;;;;;;;12.65;7.53;;;;;;;3.23;35.57;95593.25;4955949;29;20062;-69
2022/03/11 02:03:29;;;;;;;10.10;7.35;;;;;;;3.46;35.18;95615.03;4955891;28;20019;-69
2022/03/11 02:05:54;;;;;;;9.02;6.97;;;;;;;3.65;35.13;95659.19;4955734;29;20042;-69
2022/03/11 02:08:20;;;;;;;12.73;7.43;;;;;;;3.67;34.85;95663.41;4938313;29;20035;-69
2022/03/11 02:10:45;;;;;;;13.88;7.25;;;;;;;3.49;34.86;95601.41;4935119;29;20111;-69
2022/03/11 02:13:10;;;;;;;9.52;7.28;;;;;;;2.17;35.25;95496.31;4935403;29;20433;-68
2022/03/11 02:15:36;;;;;;;10.98;6.47;;;;;;;3.30;35.08;95614.09;4936748;29;20106;-68
2022/03/11 02:18:01;;;;;;;11.57;7.10;;;;;;;3.49;34.61;95644.28;4936288;29;20031;-69
2022/03/11 02:20:27;;;;;;;9.60;5.63;;;;;;;3.75;34.66;95655.06;4936076;29;20485;-70
2022/03/11 02:22:52;;;;;;;9.27;6.78;;;;;;;3.77;34.67;95674.03;4955390;28;20024;-69
2022/03/11 02:25:18;;;;;;;9.60;6.50;;;;;;;3.52;34.36;95642.97;4955257;29;20089;-68
2022/03/11 02:27:46;;;;;;;8.25;5.85;;;;;;;3.46;34.83;95628.19;4955748;28;20027;-68
2022/03/11 02:30:19;;;;;;;8.57;6.55;;;;;;;3.80;34.59;95681.44;4955321;29;20496;-67
2022/03/11 02:32:45;;;;;;;10.68;6.18;;;;;;;3.63;33.99;95636.78;4955459;28;20038;-68
2022/03/11 02:35:11;;;;;;;9.77;6.38;;;;;;;3.67;34.08;95668.66;4955375;28;20436;-68
2022/03/11 02:37:37;;;;;;;11.35;5.95;;;;;;;3.56;34.68;95681.69;4954721;29;20031;-69
2022/03/11 02:40:04;;;;;;;11.93;6.07;;;;;;;3.68;34.03;95684.19;4954991;29;20460;-68
2022/03/11 02:42:29;;;;;;;9.07;6.50;;;;;;;3.30;34.97;95669.28;4955150;28;20034;-68
2022/03/11 02:44:54;;;;;;;7.43;5.75;;;;;;;2.44;34.94;95567.28;4954043;29;20035;-68
2022/03/11 02:47:20;;;;;;;10.15;6.32;;;;;;;2.86;34.50;95633.25;4955238;29;20035;-68
2022/03/11 02:49:45;;;;;;;7.60;6.05;;;;;;;3.28;34.20;95624.84;4954693;29;20054;-68
2022/03/11 02:52:10;;;;;;;10.18;6.47;;;;;;;3.10;33.89;95622.53;4937323;29;20086;-70
2022/03/11 02:54:36;;;;;;;7.63;5.88;;;;;;;3.46;33.74;95676.31;4955075;29;20027;-69
2022/03/11 02:57:01;;;;;;;9.73;5.68;;;;;;;3.56;33.87;95642.25;4955242;29;20039;-69
2022/03/11 02:59:27;;;;;;;8.32;6.03;;;;;;;2.73;33.81;95540.88;4954066;29;20123;-69
2022/03/11 03:01:52;;;;;;;8.70;5.97;;;;;;;3.60;33.93;95680.16;4954309;28;20408;-70
2022/03/11 03:04:18;;;;;;;12.45;5.80;;;;;;;3.67;33.57;95655.50;4955076;29;20023;-69
2022/03/11 03:06:43;;;;;;;10.75;6.32;;;;;;;3.36;33.76;95627.03;4954578;28;20031;-68
2022/03/11 03:09:09;;;;;;;9.90;5.88;;;;;;;3.55;33.47;95632.75;4954545;29;20027;-69
2022/03/11 03:11:34;;;;;;;7.72;5.10;;;;;;;3.53;33.84;95639.31;4954683;28;20042;-68
2022/03/11 03:13:59;;;;;;;9.60;5.90;;;;;;;3.65;33.33;95647.88;4937308;29;20440;-68
2022/03/11 03:16:25;;;;;;;9.32;5.90;;;;;;;3.34;33.64;95602.81;4954902;29;20023;-67
2022/03/11 03:18:50;;;;;;;6.95;5.55;;;;;;;3.05;33.88;95583.03;4937190;29;20260;-67
2022/03/11 03:21:16;;;;;;;8.25;5.82;;;;;;;3.23;33.73;95613.47;4954187;29;20392;-68
2022/03/11 03:23:41;;;;;;;11.43;6.03;;;;;;;3.05;34.14;95601.44;4933408;29;20055;-68
2022/03/11 03:26:06;;;;;;;8.52;5.57;;;;;;;3.08;33.79;95614.88;4934695;29;20118;-68
2022/03/11 03:28:32;;;;;;;8.23;6.13;;;;;;;2.60;33.57;95524.44;4935123;29;20031;-68
2022/03/11 03:30:57;;;;;;;6.97;5.43;;;;;;;3.65;33.47;95667.06;4933809;29;20467;-70
2022/03/11 03:33:23;;;;;;;8.88;6.00;;;;;;;3.39;33.57;95631.81;4935371;29;20036;-68
2022/03/11 03:35:48;;;;;;;7.13;5.88;;;;;;;3.09;33.94;95584.94;4918521;29;20493;-68
2022/03/11 03:38:14;;;;;;;6.75;5.55;;;;;;;3.28;33.57;95624.06;4936874;29;20023;-69
2022/03/11 03:40:39;;;;;;;11.82;5.55;;;;;;;3.07;33.79;95613.31;4936773;29;20030;-68
2022/03/11 03:43:04;;;;;;;9.75;6.25;;;;;;;3.51;33.93;95663.22;4953146;28;20059;-69
2022/03/11 03:45:31;;;;;;;9.07;5.80;;;;;;;2.95;33.94;95578.44;4953153;29;20035;-68
2022/03/11 03:47:56;;;;;;;7.53;5.82;;;;;;;3.11;34.08;95605.69;4952897;29;20027;-69
2022/03/11 03:50:22;;;;;;;8.45;6.43;;;;;;;3.20;33.71;95603.44;4936713;29;20027;-68
2022/03/11 03:52:47;;;;;;;8.98;6.20;;;;;;;3.57;34.11;95650.91;4953528;28;20440;-68
2022/03/11 03:55:13;;;;;;;7.68;5.93;;;;;;;2.88;34.14;95550.78;4954411;29;20111;-70
2022/03/11 03:57:38;;;;;;;8.90;5.93;;;;;;;3.51;34.22;95639.56;4954070;28;20037;-68
2022/03/11 04:00:06;;;;;;;7.15;6.22;;;;;;;3.21;34.54;95653.16;4952458;28;20031;-69
2022/03/11 04:02:32;;;;;;;8.18;5.50;;;;;;;3.11;34.53;95614.38;4952582;28;20038;-68
2022/03/11 04:04:58;;;;;;;15.10;6.00;;;;;;;3.18;34.40;95635.25;4954146;29;20032;-69
2022/03/11 04:07:24;;;;;;;9.50;6.57;;;;;;;3.45;34.29;95652.91;4953318;28;20485;-68
2022/03/11 04:09:49;;;;;;;9.05;5.88;;;;;;;2.90;34.51;95588.09;4936454;29;20031;-70
2022/03/11 04:12:15;;;;;;;7.70;5.50;;;;;;;3.27;34.58;95638.22;4936487;28;20039;-69
2022/03/11 04:14:41;;;;;;;10.27;6.63;;;;;;;2.94;34.37;95591.84;4954080;29;20073;-69
2022/03/11 04:17:06;;;;;;;12.55;6.78;;;;;;;3.20;34.46;95643.69;4953995;29;20059;-68
2022/03/11 04:19:32;;;;;;;9.20;6.63;;;;;;;3.11;35.13;95666.94;4953691;28;20439;-70
2022/03/11 04:21:57;;;;;;;8.25;6.47;;;;;;;2.77;35.82;95662.84;4935959;29;20035;-69
2022/03/11 04:24:23;;;;;;;8.98;6.40;;;;;;;2.99;35.19;95658.41;4936372;29;20093;-69
2022/03/11 04:26:48;;;;;;;8.75;5.53;;;;;;;2.17;36.18;95635.41;4952500;29;20035;-68
2022/03/11 04:29:14;;;;;;;11.90;6.47;;;;;;;2.44;35.21;95582.25;4936363;29;20374;-69
2022/03/11 04:31:40;;;;;;;10.60;6.47;;;;;;;3.14;34.82;95670.94;4953564;28;20038;-69
2022/03/11 04:34:06;;;;;;;10.90;6.43;;;;;;;3.19;35.31;95664.97;4952071;29;20039;-69
2022/03/11 04:36:33;;;;;;;9.05;6.72;;;;;;;3.26;34.99;95660.31;4951844;29;20039;-69
2022/03/11 04:39:00;;;;;;;9.73;6.50;;;;;;;3.13;35.28;95664.09;4953076;29;20023;-70
2022/03/11 04:41:25;;;;;;;9.95;6.85;;;;;;;3.03;35.01;95638.47;4952201;28;20023;-70
2022/03/11 04:43:51;;;;;;;11.88;6.50;;;;;;;3.10;35.31;95654.84;4953737;29;20031;-70
2022/03/11 04:46:16;;;;;;;11.00;7.00;;;;;;;2.38;35.50;95515.75;4936146;29;20043;-69
2022/03/11 04:48:44;;;;;;;8.82;6.45;;;;;;;3.02;35.01;95642.16;4936165;29;20481;-69
2022/03/11 04:51:10;;;;;;;13.35;6.57;;;;;;;2.93;35.86;95655.94;4952801;28;20034;-68
2022/03/11 04:53:35;;;;;;;10.70;6.57;;;;;;;2.90;35.36;95646.72;4936108;29;20106;-67
2022/03/11 04:56:00;;;;;;;10.52;7.47;;;;;;;2.82;35.38;95623.50;4953527;29;20034;-69
2022/03/11 04:58:26;;;;;;;8.95;6.82;;;;;;;3.11;35.09;95655.66;4935436;29;20035;-69
2022/03/11 05:00:51;;;;;;;12.63;6.82;;;;;;;2.86;35.43;95625.38;4953387;29;20058;-68
2022/03/11 05:03:17;;;;;;;9.25;6.65;;;;;;;2.36;36.26;95595.81;4936124;29;20030;-68
2022/03/11 05:05:42;;;;;;;9.13;6.60;;;;;;;2.81;35.83;95627.13;4935909;29;20031;-69
2022/03/11 05:08:07;;;;;;;10.73;7.10;;;;;;;2.21;36.19;95573.53;4952843;29;20441;-67
2022/03/11 05:10:33;;;;;;;11.32;6.32;;;;;;;2.38;36.05;95576.13;4951610;29;20019;-68
2022/03/11 05:12:58;;;;;;;11.52;7.35;;;;;;;2.59;36.27;95595.59;4953430;28;20485;-68
2022/03/11 05:15:24;;;;;;;10.95;6.65;;;;;;;2.38;36.16;95567.47;4953226;28;20468;-67
2022/03/11 05:17:51;;;;;;;9.90;6.07;;;;;;;2.53;36.49;95594.72;4935841;29;20038;-67
2022/03/11 05:20:16;;;;;;;10.82;7.10;;;;;;;2.81;36.05;95606.91;4951500;28;20028;-69
2022/03/11 05:22:42;;;;;;;14.13;7.25;;;;;;;2.90;36.08;95622.25;4932148;29;20094;-68
2022/03/11 05:25:09;;;;;;;13.00;7.07;;;;;;;2.65;36.80;95581.47;4918624;29;20028;-68
2022/03/11 05:27:34;;;;;;;10.98;7.50;;;;;;;2.64;36.38;95603.53;4937692;29;20035;-67
2022/03/11 05:30:00;;;;;;;16.23;7.13;;;;;;;2.55;36.26;95573.47;4937432;29;20028;-67
2022/03/11 05:32:25;;;;;;;8.15;6.88;;;;;;;2.54;36.25;95554.31;4936241;29;20039;-68
2022/03/11 05:34:50;;;;;;;10.82;7.07;;;;;;;2.48;36.09;95539.53;4937528;29;20051;-69
2022/03/11 05:37:16;;;;;;;13.43;7.35;;;;;;;2.73;36.05;95585.53;4927477;29;20126;-68
2022/03/11 05:39:41;;;;;;;12.48;6.45;;;;;;;2.19;36.63;95520.47;4955190;28;20481;-69
2022/03/11 05:42:07;;;;;;;12.75;7.43;;;;;;;2.93;36.31;95627.84;4939046;29;20019;-68
2022/03/11 05:44:33;;;;;;;10.00;7.45;;;;;;;2.83;36.03;95604.84;4956554;28;20031;-69
2022/03/11 05:46:58;;;;;;;10.85;7.25;;;;;;;1.86;37.43;95536.28;4955181;29;20043;-69
2022/03/11 05:49:24;;;;;;;12.65;7.53;;;;;;;2.29;37.40;95606.44;4954823;28;20447;-70
2022/03/11 05:51:51;;;;;;;10.75;7.10;;;;;;;2.38;36.75;95552.50;4955875;28;20027;-70
2022/03/11 05:54:17;;;;;;;10.68;6.63;;;;;;;2.65;36.77;95589.38;4956220;29;20078;-69
2022/03/11 05:56:42;;;;;;;11.45;7.38;;;;;;;2.46;36.84;95567.06;4954724;28;20031;-69
2022/03/11 05:59:08;;;;;;;11.57;7.15;;;;;;;2.71;36.64;95595.47;4954768;28;20529;-69
2022/03/11 06:01:34;;;;;;;8.70;7.15;;;;;;;2.77;36.89;95629.47;4956004;28;20019;-69
2022/03/11 06:04:01;;;;;;;13.32;7.28;;;;;;;2.28;36.73;95531.38;4954672;29;20023;-70
2022/03/11 06:06:27;;;;;;;14.80;7.15;;;;;;;2.81;36.31;95603.50;4955901;29;20047;-68
2022/03/11 06:08:53;;;;;;;16.20;8.10;;;;;;;2.80;36.23;95586.94;4955211;29;20523;-68
2022/03/11 06:11:18;;;;;;;15.10;7.53;;;;;;;2.69;36.28;95564.22;4955313;28;20078;-68
2022/03/11 06:13:44;;;;;;;13.18;7.80;;;;;;;3.20;35.96;95620.00;4938666;29;20066;-69
2022/03/11 06:16:09;;;;;;;9.25;7.00;;;;;;;3.21;35.93;95626.84;4938461;29;20102;-68
2022/03/11 06:18:35;;;;;;;10.82;7.88;;;;;;;3.18;36.13;95616.06;4938237;29;20058;-68
2022/03/11 06:21:00;;;;;;;9.98;7.32;;;;;;;3.01;36.16;95595.88;4955194;28;20062;-70
2022/03/11 06:23:25;;;;;;;16.27;8.88;;;;;;;3.02;36.27;95573.00;4953472;29;20062;-71
2022/03/11 06:25:51;;;;;;;11.52;8.40;;;;;;;3.20;36.23;95619.22;4955609;29;20090;-66
2022/03/11 06:28:17;;;;;;;12.18;7.93;;;;;;;3.50;36.25;95645.88;4955217;28;20027;-66
2022/03/11 06:30:45;;;;;;;11.15;7.43;;;;;;;2.65;36.57;95604.34;4955065;28;20433;-67
2022/03/11 06:33:10;;;;;;;12.65;7.65;;;;;;;3.19;36.90;95657.06;4955360;28;20040;-66
2022/03/11 06:35:36;;;;;;;14.02;8.32;;;;;;;3.26;36.67;95641.91;4954789;28;20507;-66
2022/03/11 06:38:01;;;;;;;12.18;7.53;;;;;;;3.43;36.48;95679.47;4954569;28;20660;-67
2022/03/11 06:40:27;;;;;;;10.35;7.78;;;;;;;3.61;39.09;95670.44;4954858;29;20031;-65
2022/03/11 06:42:53;;;;;;;10.07;7.65;;;;;;;3.74;38.52;95600.88;4955276;28;20039;-64
2022/03/11 06:45:19;;;;;;;11.27;7.85;;;;;;;4.31;35.54;95679.28;4955214;29;20019;-63
2022/03/11 06:47:46;;;;;;;10.60;7.55;;;;;;;4.36;35.45;95671.44;4955395;29;20091;-65
2022/03/11 06:50:13;;;;;;;16.00;8.43;;;;;;;4.38;35.05;95661.41;4953799;29;20037;-65
2022/03/11 06:52:38;;;;;;;11.90;8.00;;;;;;;4.17;35.17;95642.81;4954364;28;20441;-68
2022/03/11 06:55:05;;;;;;;12.32;8.15;;;;;;;4.24;35.18;95652.34;4955007;29;20078;-67
2022/03/11 06:57:31;;;;;;;12.88;8.15;;;;;;;4.24;35.36;95660.25;4954981;28;20115;-62
2022/03/11 06:59:56;;;;;;;11.52;7.50;;;;;;;3.20;35.26;95487.78;4954724;29;20089;-65
2022/03/11 07:02:23;;;;;;;11.70;7.97;;;;;;;3.20;35.37;95496.47;4953354;28;20055;-62
2022/03/11 07:04:48;;;;;;;13.95;8.32;;;;;;;4.40;35.20;95675.94;4954983;29;20030;-65
2022/03/11 07:07:14;;;;;;;12.50;8.30;;;;;;;3.71;35.99;95617.13;4954355;29;20407;-65
2022/03/11 07:09:39;;;;;;;10.45;7.93;;;;;;;4.21;35.57;95643.13;4954531;29;20074;-64
2022/03/11 07:12:05;;;;;;;11.30;9.07;;;;;;;4.47;35.67;95681.00;4954742;28;20491;-67
2022/03/11 07:14:38;;;;;;;16.58;8.35;;;;;;;4.44;35.52;95686.75;4954760;29;20035;-66
2022/03/11 07:17:05;;;;;;;9.80;8.20;;;;;;;4.44;35.74;95679.63;4954527;28;20086;-64
2022/03/11 07:19:31;;;;;;;10.55;8.23;;;;;;;4.62;35.17;95675.84;4937208;29;20553;-64
2022/03/11 07:21:58;;;;;;;11.73;8.55;;;;;;;4.63;35.48;95692.44;4953997;28;20035;-64
2022/03/11 07:24:23;;;;;;;11.65;8.50;;;;;;;4.74;35.54;95670.38;4954308;28;20035;-62
2022/03/11 07:26:48;;;;;;;13.07;8.65;;;;;;;4.85;35.28;95666.75;4954461;28;20054;-65
2022/03/11 07:29:14;;;;;;;11.73;9.05;;;;;;;4.80;35.02;95650.91;4954254;29;20101;-64
2022/03/11 07:31:40;;;;;;;18.80;9.65;;;;;;;4.93;34.95;95687.38;4954205;28;20457;-65
2022/03/11 07:34:06;;;;;;;15.40;8.90;;;;;;;3.82;35.39;95574.09;4954250;29;20032;-66
2022/03/11 07:36:34;;;;;;;11.95;8.55;;;;;;;3.75;35.69;95565.63;4954201;29;20035;-63
2022/03/11 07:39:03;;;;;;;12.30;9.18;;;;;;;3.76;35.21;95528.53;4953390;29;20047;-64
2022/03/11 07:41:29;;;;;;;11.88;8.90;;;;;;;5.15;35.16;95705.69;4953820;28;20039;-66
2022/03/11 07:43:55;;;;;;;13.63;8.88;;;;;;;4.81;35.39;95655.16;4954136;28;20028;-66
2022/03/11 07:46:21;;;;;;;11.07;8.68;;;;;;;4.75;35.27;95613.19;4954136;28;20031;-64
2022/03/11 07:48:47;;;;;;;11.50;9.35;;;;;;;5.36;34.83;95698.66;4953518;28;20078;-66
2022/03/11 07:51:12;;;;;;;14.88;10.02;;;;;;;4.40;36.08;95654.03;4953750;28;20035;-64
2022/03/11 07:53:38;;;;;;;14.02;8.98;;;;;;;5.16;35.37;95690.66;4953392;29;20035;-65
2022/03/11 07:56:05;;;;;;;16.70;9.52;;;;;;;4.82;35.84;95656.72;4954145;29;20114;-64
2022/03/11 07:58:30;;;;;;;12.70;8.18;;;;;;;5.19;35.51;95696.22;4953600;29;20038;-65
2022/03/11 08:00:56;;;;;;;13.43;9.02;;;;;;;5.35;35.48;95699.72;4953650;28;20038;-65
2022/03/11 08:03:22;;;;;;;13.65;9.02;;;;;;;5.12;35.46;95681.69;4953964;29;20034;-67
2022/03/11 08:05:48;;;;;;;14.73;10.15;;;;;;;5.05;35.55;95644.19;4953860;29;20110;-65
2022/03/11 08:08:15;;;;;;;19.73;9.70;;;;;;;5.24;35.25;95660.38;4936076;29;20027;-65
2022/03/11 08:10:41;;;;;;;13.82;9.82;;;;;;;4.47;35.37;95514.25;4934416;29;20118;-65
2022/03/11 08:13:07;;;;;;;18.17;9.02;;;;;;;4.88;35.05;95536.31;4934619;29;20107;-67
2022/03/11 08:15:33;;;;;;;13.23;9.75;;;;;;;5.65;34.86;95687.72;4934522;29;20043;-67
2022/03/11 08:17:59;;;;;;;13.32;9.27;;;;;;;5.15;35.15;95655.59;4901615;29;20043;-66
2022/03/11 08:20:25;;;;;;;14.23;8.98;;;;;;;5.24;35.88;95689.38;4934243;29;20086;-65
2022/03/11 08:22:50;;;;;;;21.23;9.15;;;;;;;4.99;35.56;95658.41;4940162;29;20456;-66
2022/03/11 08:25:17;;;;;;;18.25;9.75;;;;;;;5.52;34.99;95694.25;4953107;28;20492;-65
2022/03/11 08:27:42;;;;;;;12.57;9.40;;;;;;;5.64;34.66;95643.91;4953441;28;20477;-65
2022/03/11 08:30:10;;;;;;;13.55;10.48;;;;;;;5.21;33.95;95546.41;4952685;29;20085;-66
2022/03/11 08:32:36;;;;;;;15.27;10.27;;;;;;;5.35;35.20;95641.69;4953195;28;20027;-64
2022/03/11 08:35:01;;;;;;;12.90;9.35;;;;;;;5.47;35.79;95681.03;4936608;29;20133;-66
2022/03/11 08:37:27;;;;;;;12.13;9.98;;;;;;;5.86;34.96;95644.47;4952906;29;20854;-66
2022/03/11 08:39:53;;;;;;;14.75;9.65;;;;;;;5.99;34.43;95630.03;4953086;29;20027;-66
2022/03/11 08:42:18;;;;;;;13.50;9.52;;;;;;;6.12;34.00;95666.47;4953185;28;20030;-66
2022/03/11 08:44:43;;;;;;;13.80;9.70;;;;;;;5.24;34.54;95534.56;4953346;29;20027;-67
2022/03/11 08:47:09;;;;;;;16.90;10.57;;;;;;;6.17;34.65;95677.03;4953088;29;20519;-66
2022/03/11 08:49:35;;;;;;;12.95;9.32;;;;;;;6.39;33.59;95636.34;4951643;29;20051;-66
2022/03/11 08:52:00;;;;;;;16.33;10.02;;;;;;;6.18;33.32;95586.16;4953268;28;20106;-66
2022/03/11 08:54:26;;;;;;;14.40;10.43;;;;;;;6.15;33.75;95622.91;4952869;29;20042;-65
2022/03/11 08:56:54;;;;;;;12.98;10.05;;;;;;;6.38;33.77;95595.16;4953292;28;20106;-67
2022/03/11 08:59:20;;;;;;;11.88;9.93;;;;;;;6.73;33.58;95591.66;4953974;28;20031;-65
2022/03/11 09:01:46;;;;;;;12.43;9.50;;;;;;;6.52;33.30;95619.97;4956901;28;20038;-65
2022/03/11 09:04:11;;;;;;;16.33;10.25;;;;;;;6.25;33.25;95602.56;4957104;29;20181;-67
2022/03/11 09:06:37;;;;;;;14.07;10.02;;;;;;;6.95;33.57;95668.03;4957101;29;20028;-65
2022/03/11 09:09:03;;;;;;;11.63;9.60;;;;;;;6.81;33.55;95651.94;4939093;29;20035;-65
2022/03/11 09:11:28;;;;;;;16.08;10.38;;;;;;;6.86;33.44;95622.84;4939530;29;20358;-65
2022/03/11 09:13:54;;;;;;;14.18;9.35;;;;;;;6.55;33.12;95594.84;4937778;29;20465;-66
2022/03/11 09:16:19;;;;;;;20.15;9.88;;;;;;;6.41;33.66;95591.97;4937444;29;20032;-65
2022/03/11 09:18:45;;;;;;;15.57;10.45;;;;;;;6.81;32.94;95606.16;4937552;29;20028;-67
2022/03/11 09:21:11;;;;;;;15.55;10.93;;;;;;;7.21;33.48;95656.31;4920113;29;20481;-65
2022/03/11 09:23:38;;;;;;;11.32;9.10;;;;;;;6.96;32.70;95624.63;4946989;29;20063;-66
2022/03/11 09:26:04;;;;;;;13.43;9.55;;;;;;;6.65;33.85;95624.69;4956185;28;20574;-66
2022/03/11 09:28:31;;;;;;;15.75;9.85;;;;;;;7.09;33.63;95642.59;4956242;29;20027;-67
2022/03/11 09:30:57;;;;;;;12.63;9.48;;;;;;;6.81;33.66;95624.69;4956369;28;20047;-65
2022/03/11 09:33:22;;;;;;;15.80;9.75;;;;;;;7.36;32.84;95629.00;4956224;29;20518;-66
2022/03/11 09:35:47;;;;;;;15.88;9.80;;;;;;;7.45;32.52;95637.19;4956428;29;20408;-65
2022/03/11 09:38:13;;;;;;;13.75;10.27;;;;;;;7.81;32.72;95648.41;4955937;29;20429;-65
2022/03/11 09:40:42;;;;;;;11.35;9.70;;;;;;;7.69;32.57;95669.13;4944881;29;20040;-65
2022/03/11 09:43:10;;;;;;;14.27;9.00;;;;;;;7.75;32.41;95620.38;4937283;29;20194;-66
2022/03/11 09:45:35;;;;;;;14.13;9.48;;;;;;;8.14;31.86;95627.50;4937204;29;20042;-66
2022/03/11 09:48:02;;;;;;;12.13;8.73;;;;;;;8.25;31.87;95624.53;4937592;29;20032;-64
2022/03/11 09:50:28;;;;;;;11.20;9.15;;;;;;;8.74;31.20;95642.16;4936731;29;20032;-67
2022/03/11 09:52:55;;;;;;;10.00;8.85;;;;;;;8.32;31.29;95569.34;4938560;29;20031;-68
2022/03/11 09:55:21;;;;;;;13.95;9.77;;;;;;;8.36;31.00;95619.16;4954591;28;20125;-65
2022/03/11 09:57:46;;;;;;;13.55;9.00;;;;;;;8.65;31.49;95651.81;4955938;29;20129;-69
2022/03/11 10:00:12;;;;;;;12.20;8.93;;;;;;;8.71;31.27;95649.91;4955623;28;20023;-66
2022/03/11 10:02:40;;;;;;;10.82;9.70;;;;;;;9.08;30.62;95643.97;4955867;29;20028;-68
2022/03/11 10:05:06;;;;;;;13.52;9.50;;;;;;;9.14;30.15;95631.44;4956051;28;20480;-68
2022/03/11 10:07:32;;;;;;;12.73;9.25;;;;;;;8.96;30.86;95648.88;4955882;29;20027;-66
2022/03/11 10:10:11;;;;;;;11.73;8.98;;;;;;;8.54;31.33;95640.47;4955008;28;20052;-66
2022/03/11 10:12:42;;;;;;;11.63;9.35;;;;;;;8.69;30.95;95606.94;4955708;29;20046;-68
2022/03/11 10:15:09;;;;;;;11.75;9.10;;;;;;;8.79;30.54;95582.97;4955925;29;20024;-67
2022/03/11 10:17:53;;;;;;;13.25;8.48;;;;;;;9.53;30.40;95640.00;4955713;29;20035;-66
2022/03/11 10:20:20;;;;;;;10.20;9.13;;;;;;;9.61;30.21;95636.72;4955090;28;20066;-65
2022/03/11 10:22:46;;;;;;;11.82;8.80;;;;;;;9.07;30.73;95618.50;4955319;29;20106;-66
2022/03/11 10:25:16;;;;;;;12.98;9.32;;;;;;;9.74;29.75;95635.22;4955511;29;20110;-65
2022/03/11 10:27:56;;;;;;;11.50;9.55;;;;;;;9.43;29.98;95632.16;4936617;29;20055;-65
2022/03/11 10:30:22;;;;;;;12.52;9.15;;;;;;;9.38;29.77;95621.59;4935955;29;20027;-66
2022/03/11 10:32:50;;;;;;;14.02;9.57;;;;;;;9.07;30.49;95621.97;4936219;29;20039;-67
2022/03/11 10:35:18;;;;;;;10.68;8.65;;;;;;;9.24;30.10;95586.19;4919322;29;20027;-66
2022/03/11 10:38:01;;;;;;;11.07;9.50;;;;;;;8.87;30.61;95598.28;4935990;29;20384;-65
2022/03/11 10:40:31;;;;;;;11.10;9.38;;;;;;;9.14;30.68;95618.97;4954731;28;20031;-67
2022/03/11 10:43:33;;;;;;;10.75;9.27;;;;;;;9.97;29.30;95628.25;4955348;29;20031;-67
2022/03/11 10:46:02;;;;;;;11.07;8.93;;;;;;;9.74;29.14;95629.91;4955321;29;20361;-66
2022/03/11 10:48:43;;;;;;;16.98;9.95;;;;;;;10.05;29.33;95630.28;4954645;29;20111;-67
2022/03/11 10:51:20;;;;;;;19.17;9.35;;;;;;;9.63;29.14;95564.72;4937427;29;20440;-65
2022/03/11 10:53:49;;;;;;;11.07;9.15;;;;;;;10.08;28.73;95592.50;4954771;29;20051;-66
2022/03/11 10:56:29;;;;;;;10.90;9.27;;;;;;;10.18;28.64;95606.69;4947856;29;20102;-66
2022/03/11 10:58:57;;;;;;;16.70;9.90;;;;;;;10.20;28.40;95626.63;4935539;29;20497;-66
2022/03/11 11:01:40;;;;;;;14.18;10.07;;;;;;;9.83;28.97;95606.16;4935711;29;20032;-67
2022/03/11 11:04:08;;;;;;;10.93;9.48;;;;;;;10.26;28.03;95627.34;4935761;29;20115;-67
2022/03/11 11:06:34;;;;;;;11.60;9.25;;;;;;;10.16;29.06;95615.75;4935500;29;20465;-66
2022/03/11 11:09:01;;;;;;;16.02;9.73;;;;;;;10.65;28.27;95625.13;4943592;29;20047;-66
2022/03/11 11:11:27;;;;;;;10.93;9.07;;;;;;;10.76;28.06;95591.16;4945450;28;20049;-65
2022/03/11 11:13:52;;;;;;;11.63;9.63;;;;;;;10.74;28.16;95605.81;4935645;29;20024;-65
2022/03/11 11:16:30;;;;;;;11.40;9.73;;;;;;;10.88;28.05;95594.09;4918539;29;20366;-66
2022/03/11 11:18:59;;;;;;;17.52;9.70;;;;;;;10.54;28.14;95589.13;4934995;29;20035;-66
2022/03/11 11:21:26;;;;;;;12.85;10.15;;;;;;;10.45;28.00;95608.72;4935533;29;20027;-67
2022/03/11 11:23:56;;;;;;;13.07;9.68;;;;;;;10.23;27.68;95580.03;4942026;29;20016;-64
2022/03/11 11:26:23;;;;;;;11.60;9.00;;;;;;;10.18;28.10;95537.56;4924158;29;20114;-67
2022/03/11 11:28:51;;;;;;;13.40;10.02;;;;;;;10.38;28.85;95593.91;4918043;29;20035;-68
2022/03/11 11:31:18;;;;;;;15.02;10.05;;;;;;;10.69;27.94;95593.38;4917842;29;20671;-67